Time;durP1;ratioP1;P1;durP2;ratioP2;P2;SDS_P1;SDS_P2;PMS_P1;PMS_P2;Temp;Humidity;BMP_temperature;BMP_pressure;BME280_temperature;BME280_humidity;BME280_pressure;Samples;Min_cycle;Max_cycle;Signal;HPM_P1;HPM_P2
2022/11/28 00:00:16;;;;;;;159.85;124.43;;;20.20;49.60;;;;;;4695188;59;21519;-45
2022/11/28 00:05:17;;;;;;;160.37;124.03;;;20.20;49.60;;;;;;5142620;55;21103;-45
2022/11/28 00:10:18;;;;;;;157.73;120.22;;;20.20;49.60;;;;;;4694978;59;21438;-41
2022/11/28 00:15:19;;;;;;;161.20;123.75;;;20.20;49.60;;;;;;4694736;59;21051;-39
2022/11/28 00:20:19;;;;;;;154.18;119.20;;;20.20;49.60;;;;;;4894415;55;21063;-35
2022/11/28 00:25:20;;;;;;;156.85;120.60;;;20.20;49.50;;;;;;4870309;55;21160;-26
2022/11/28 00:30:21;;;;;;;154.02;118.75;;;20.20;49.50;;;;;;4718185;55;20981;-28
2022/11/28 00:35:22;;;;;;;148.73;115.95;;;20.20;50.20;;;;;;4811568;55;21000;-46
2022/11/28 00:40:22;;;;;;;151.95;117.60;;;20.20;49.50;;;;;;5120140;55;20996;-43
2022/11/28 00:45:23;;;;;;;150.82;119.00;;;20.20;49.50;;;;;;4786781;55;21515;-39
2022/11/28 00:50:24;;;;;;;153.15;116.43;;;20.20;49.50;;;;;;5115494;55;21155;-35
2022/11/28 00:55:25;;;;;;;150.35;117.57;;;20.20;49.40;;;;;;4759078;55;20996;-38
2022/11/28 01:00:26;;;;;;;145.90;114.75;;;20.20;49.40;;;;;;4778410;55;21031;-38
2022/11/28 01:05:26;;;;;;;143.73;113.80;;;20.20;50.10;;;;;;5119881;55;21075;-37
2022/11/28 01:10:27;;;;;;;141.80;111.75;;;20.20;49.40;;;;;;5008894;55;20983;-45
2022/11/28 01:15:28;;;;;;;143.48;112.53;;;20.20;49.40;;;;;;4801081;55;21004;-41
2022/11/28 01:20:29;;;;;;;140.75;109.07;;;20.20;49.40;;;;;;4753034;55;20992;-36
2022/11/28 01:25:30;;;;;;;143.18;109.85;;;20.20;49.40;;;;;;4738466;55;21558;-42
2022/11/28 01:30:32;;;;;;;138.82;109.35;;;20.20;49.40;;;;;;4695330;59;21127;-29
2022/11/28 01:35:33;;;;;;;140.62;108.45;;;20.20;49.40;;;;;;4695177;59;21012;-38
2022/11/28 01:40:34;;;;;;;138.15;107.35;;;20.20;49.30;;;;;;4695143;59;21043;-35
2022/11/28 01:45:35;;;;;;;135.02;105.30;;;20.20;49.30;;;;;;4693920;59;21498;-40
2022/11/28 01:50:37;;;;;;;134.63;105.65;;;20.20;49.30;;;;;;5169665;55;21155;-38
2022/11/28 01:55:59;;;;;;;132.80;104.05;;;20.20;49.30;;;;;;5169525;55;21009;-48
2022/11/28 02:01:01;;;;;;;132.80;104.20;;;20.20;49.30;;;;;;4695368;59;21015;-45
2022/11/28 02:06:02;;;;;;;133.65;103.35;;;20.20;49.30;;;;;;4795800;55;21620;-30
2022/11/28 02:12:47;;;;;;;125.95;99.37;;;20.20;49.20;;;;;;4715266;55;21064;-41
2022/11/28 02:18:05;;;;;;;128.07;101.20;;;20.20;49.20;;;;;;5035526;55;21096;-40
2022/11/28 02:23:22;;;;;;;128.20;98.20;;;20.10;49.20;;;;;;4789654;55;21016;-35
2022/11/28 02:28:36;;;;;;;;;;;20.10;49.20;;;;;;4979952;55;21004;-46
2022/11/28 02:33:54;;;;;;;125.05;98.22;;;20.10;49.20;;;;;;4804153;55;20170;-28
2022/11/28 02:39:22;;;;;;;123.00;98.47;;;20.20;49.20;;;;;;5169652;55;21119;-46
2022/11/28 02:44:32;;;;;;;118.07;92.70;;;20.10;49.10;;;;;;5047093;55;21016;-44
2022/11/28 02:50:42;;;;;;;119.62;96.50;;;20.10;49.10;;;;;;4810535;55;21012;-39
2022/11/28 02:55:44;;;;;;;122.43;95.62;;;20.10;49.10;;;;;;4800532;55;21056;-40
2022/11/28 03:00:47;;;;;;;118.18;92.62;;;20.10;49.00;;;;;;4695170;59;21067;-37
2022/11/28 03:06:21;;;;;;;119.15;93.07;;;20.10;49.00;;;;;;4821554;55;21000;-43
2022/11/28 03:11:46;;;;;;;112.97;88.78;;;20.10;48.90;;;;;;4694917;59;21056;-47
2022/11/28 03:17:00;;;;;;;110.50;86.50;;;20.10;49.00;;;;;;4803077;55;20977;-44
2022/11/28 03:22:39;;;;;;;115.15;90.47;;;20.20;49.00;;;;;;4744032;55;21059;-48
2022/11/28 03:30:23;;;;;;;110.75;86.10;;;20.10;49.00;;;;;;4694010;56;20984;-43
2022/11/28 03:35:29;;;;;;;109.15;86.12;;;20.10;48.90;;;;;;4871516;55;21000;-38
2022/11/28 03:40:35;;;;;;;107.10;85.47;;;20.10;48.90;;;;;;4909502;55;20972;-35
2022/11/28 03:45:50;;;;;;;105.35;84.70;;;20.10;48.90;;;;;;4930542;55;21080;-44
2022/11/28 03:51:08;;;;;;;106.95;83.28;;;20.10;48.90;;;;;;4733452;55;21139;-29
2022/11/28 03:56:15;;;;;;;105.37;83.62;;;20.10;48.90;;;;;;4942459;55;21000;-41
2022/11/28 04:02:19;;;;;;;103.55;82.47;;;20.10;48.90;;;;;;4695072;59;20996;-43
2022/11/28 04:09:18;;;;;;;108.15;83.80;;;20.10;49.00;;;;;;4863843;55;20993;-37
2022/11/28 04:14:59;;;;;;;97.60;79.43;;;20.10;49.00;;;;;;4768061;55;21079;-33
2022/11/28 04:20:37;;;;;;;96.85;78.82;;;20.10;49.00;;;;;;4775165;55;21490;-39
2022/11/28 04:25:45;;;;;;;98.85;78.90;;;20.10;49.00;;;;;;4801640;55;21001;-28
2022/11/28 04:30:49;;;;;;;101.40;80.00;;;20.10;49.00;;;;;;5099257;55;21016;-29
2022/11/28 04:35:52;;;;;;;96.37;77.93;;;20.10;49.00;;;;;;5169932;55;21048;-30
2022/11/28 04:41:00;;;;;;;97.57;75.82;;;20.10;49.00;;;;;;4695592;56;20996;-36
2022/11/28 04:46:10;;;;;;;93.72;75.72;;;20.10;49.00;;;;;;4796661;55;21021;-42
2022/11/28 04:51:26;;;;;;;93.60;75.45;;;20.10;49.10;;;;;;4812277;55;21079;-46
2022/11/28 04:56:35;;;;;;;90.43;72.25;;;20.10;49.10;;;;;;4744853;55;21000;-46
2022/11/28 05:01:39;;;;;;;92.65;73.32;;;20.10;49.20;;;;;;4695406;55;21130;-35
2022/11/28 05:06:40;;;;;;;90.55;72.53;;;20.10;49.20;;;;;;4719631;55;21067;-38
2022/11/28 05:11:41;;;;;;;90.45;72.35;;;20.10;49.20;;;;;;4908878;55;21574;-37
2022/11/28 05:16:41;;;;;;;89.47;70.35;;;20.10;49.30;;;;;;4995033;55;21466;-43
2022/11/28 05:21:43;;;;;;;87.40;68.62;;;20.10;49.20;;;;;;4719130;55;21012;-44
2022/11/28 05:26:44;;;;;;;86.03;67.60;;;20.10;49.30;;;;;;4838806;55;21502;-40
2022/11/28 05:31:45;;;;;;;86.55;68.28;;;20.10;49.30;;;;;;4838092;55;21016;-36
2022/11/28 05:36:46;;;;;;;84.97;67.22;;;20.10;49.20;;;;;;4884727;55;21055;-43
2022/11/28 05:41:47;;;;;;;84.85;67.03;;;20.10;49.20;;;;;;4762693;55;21569;-37
2022/11/28 05:46:48;;;;;;;79.15;63.72;;;20.10;49.20;;;;;;4880951;55;21012;-31
2022/11/28 05:51:49;;;;;;;85.05;67.78;;;20.00;49.10;;;;;;4694677;59;21173;-38
2022/11/28 05:56:49;;;;;;;80.43;64.75;;;20.10;49.20;;;;;;4694787;59;21554;-37
2022/11/28 06:01:50;;;;;;;81.75;63.33;;;20.10;49.10;;;;;;4813857;55;21000;-39
2022/11/28 06:06:51;;;;;;;80.22;62.53;;;20.10;49.10;;;;;;4750220;55;21071;-45
2022/11/28 06:11:52;;;;;;;79.43;62.17;;;20.10;49.10;;;;;;4695274;56;21000;-32
2022/11/28 06:16:53;;;;;;;76.47;60.92;;;20.10;49.00;;;;;;4694930;59;21012;-33
2022/11/28 06:21:55;;;;;;;75.55;60.40;;;20.10;49.00;;;;;;4699394;55;21008;-46
2022/11/28 06:26:56;;;;;;;77.28;61.30;;;20.10;49.00;;;;;;5082425;55;21551;-36
2022/11/28 06:31:56;;;;;;;75.87;59.85;;;20.00;48.90;;;;;;5025311;55;21013;-44
2022/11/28 06:36:57;;;;;;;77.70;61.30;;;20.10;48.90;;;;;;4755094;55;21024;-33
2022/11/28 06:41:58;;;;;;;75.37;61.72;;;20.00;48.80;;;;;;4698755;55;21458;-33
2022/11/28 06:46:59;;;;;;;75.93;60.40;;;20.00;48.70;;;;;;4895489;55;21020;-33
2022/11/28 06:52:00;;;;;;;74.97;60.65;;;20.10;48.70;;;;;;4798107;55;21027;-33
2022/11/28 06:57:00;;;;;;;77.40;60.03;;;20.10;48.70;;;;;;4892540;55;21084;-34
2022/11/28 07:02:02;;;;;;;77.12;59.85;;;20.00;48.60;;;;;;4694964;59;21056;-42
2022/11/28 07:07:03;;;;;;;77.60;60.38;;;20.00;48.60;;;;;;5088982;55;21561;-39
2022/11/28 07:12:04;;;;;;;74.93;60.12;;;20.00;48.10;;;;;;5022879;55;21076;-44
2022/11/28 07:17:05;;;;;;;76.43;61.08;;;20.00;48.50;;;;;;4793835;55;21105;-33
2022/11/28 07:22:05;;;;;;;77.65;60.05;;;20.00;48.50;;;;;;4773464;55;21013;-33
2022/11/28 07:27:06;;;;;;;79.07;61.83;;;20.00;48.40;;;;;;4874367;55;21020;-38
2022/11/28 07:32:07;;;;;;;77.68;61.83;;;20.00;48.30;;;;;;4742296;55;21012;-36
2022/11/28 07:37:08;;;;;;;75.18;61.42;;;20.00;48.40;;;;;;4739406;55;21558;-38
2022/11/28 07:42:10;;;;;;;80.05;63.85;;;20.00;48.40;;;;;;4697154;55;21100;-27
2022/11/28 07:47:11;;;;;;;74.28;59.47;;;20.00;48.30;;;;;;4947092;55;21064;-41
2022/11/28 07:52:12;;;;;;;78.85;60.47;;;20.00;48.30;;;;;;4793748;55;21092;-29
2022/11/28 07:57:12;;;;;;;75.18;60.12;;;20.00;48.30;;;;;;4695264;55;21012;-35
2022/11/28 08:02:13;;;;;;;80.05;62.60;;;20.00;48.20;;;;;;4695294;55;20976;-35
2022/11/28 08:07:14;;;;;;;79.65;62.17;;;20.00;48.20;;;;;;4824036;55;21017;-34
2022/11/28 08:12:15;;;;;;;92.85;67.55;;;20.00;48.20;;;;;;4701888;55;21264;-40
2022/11/28 08:17:15;;;;;;;105.37;75.05;;;20.10;48.10;;;;;;4963735;55;21522;-44
2022/11/28 08:22:16;;;;;;;108.68;78.10;;;20.10;48.00;;;;;;4867578;55;20981;-33
2022/11/28 08:27:17;;;;;;;114.97;79.47;;;20.10;47.90;;;;;;4771095;55;21049;-34
2022/11/28 08:32:19;;;;;;;115.55;83.78;;;20.20;47.90;;;;;;4742875;55;21043;-29
2022/11/28 08:37:20;;;;;;;123.95;88.50;;;20.20;47.80;;;;;;4695017;59;21541;-40
2022/11/28 08:42:20;;;;;;;134.68;91.15;;;20.20;47.70;;;;;;4962170;55;21020;-30
2022/11/28 08:47:21;;;;;;;125.43;92.00;;;20.20;47.50;;;;;;4986599;55;21458;-31
2022/11/28 08:52:23;;;;;;;135.55;95.50;;;20.20;47.50;;;;;;4737811;55;21188;-32
2022/11/28 08:57:24;;;;;;;144.95;101.18;;;20.20;47.40;;;;;;4808387;55;21044;-39
2022/11/28 09:02:25;;;;;;;159.57;106.75;;;20.30;47.30;;;;;;4711845;55;21016;-32
2022/11/28 09:07:26;;;;;;;169.62;113.43;;;20.30;47.30;;;;;;4726290;55;21027;-34
2022/11/28 09:12:26;;;;;;;172.50;118.72;;;20.30;47.30;;;;;;5026944;55;21466;-28
2022/11/28 09:17:27;;;;;;;166.62;114.65;;;20.30;47.10;;;;;;4722861;55;21075;-27
2022/11/28 09:22:28;;;;;;;187.20;123.28;;;20.30;47.20;;;;;;4911913;55;21011;-37
2022/11/28 09:27:29;;;;;;;185.37;125.28;;;20.30;47.20;;;;;;5100622;55;21466;-45
2022/11/28 09:32:30;;;;;;;187.70;132.07;;;20.30;47.20;;;;;;4715180;55;21032;-36
2022/11/28 09:37:31;;;;;;;203.18;134.48;;;20.30;47.00;;;;;;4755606;55;21056;-34
2022/11/28 09:42:42;;;;;;;208.70;133.45;;;20.30;46.90;;;;;;4795804;55;21482;-38
2022/11/28 09:47:48;;;;;;;193.05;134.30;;;20.30;46.80;;;;;;4695331;59;21617;-32
2022/11/28 09:53:22;;;;;;;208.20;143.85;;;20.30;46.80;;;;;;4874634;55;21040;-39
2022/11/28 09:59:15;;;;;;;215.98;145.15;;;20.30;46.80;;;;;;4854974;55;21140;-37
2022/11/28 10:04:46;;;;;;;218.65;147.70;;;20.30;46.80;;;;;;4977580;55;21072;-35
2022/11/28 10:10:24;;;;;;;230.57;155.40;;;20.30;46.90;;;;;;4747634;55;21071;-43
2022/11/28 10:16:18;;;;;;;233.63;157.65;;;20.40;47.10;;;;;;4694603;57;21117;-47
2022/11/28 10:22:21;;;;;;;241.10;166.50;;;20.40;47.20;;;;;;4727046;55;21025;-46
2022/11/28 10:27:28;;;;;;;237.93;165.05;;;20.40;47.30;;;;;;5013792;55;21052;-38
2022/11/28 10:32:36;;;;;;;246.37;168.70;;;20.40;47.40;;;;;;4786461;55;21056;-39
2022/11/28 10:37:38;;;;;;;245.07;166.85;;;20.40;47.50;;;;;;4694365;59;21005;-44
2022/11/28 10:43:01;;;;;;;239.30;172.95;;;20.40;47.60;;;;;;4809271;55;21071;-33
2022/11/28 10:51:24;;;;;;;240.50;171.75;;;20.40;47.70;;;;;;4763901;55;20999;-28
2022/11/28 10:58:25;;;;;;;244.20;174.82;;;20.50;47.90;;;;;;4833877;55;21060;-28
2022/11/28 11:03:30;;;;;;;242.95;171.52;;;20.50;47.90;;;;;;4725186;55;21064;-28
2022/11/28 11:08:36;;;;;;;240.87;175.95;;;20.50;48.00;;;;;;4750561;55;20996;-27
2022/11/28 11:14:03;;;;;;;236.82;169.07;;;20.50;48.10;;;;;;4749063;55;21062;-46
2022/11/28 11:19:04;;;;;;;237.00;168.62;;;20.50;48.10;;;;;;4748183;55;21003;-43
2022/11/28 11:24:15;;;;;;;242.35;171.80;;;20.50;48.10;;;;;;4916072;55;21000;-39
2022/11/28 11:29:31;;;;;;;231.65;168.32;;;20.50;48.20;;;;;;4851671;55;21072;-34
2022/11/28 11:34:41;;;;;;;229.57;164.13;;;20.50;48.20;;;;;;4914045;55;21510;-42
2022/11/28 11:39:52;;;;;;;230.00;165.45;;;20.40;48.20;;;;;;5025179;55;20991;-48
2022/11/28 11:44:53;;;;;;;222.07;159.75;;;20.40;48.30;;;;;;4983092;55;21626;-35
2022/11/28 11:50:04;;;;;;;227.38;165.00;;;20.40;48.30;;;;;;4730548;55;21024;-32
2022/11/28 11:55:14;;;;;;;228.23;163.43;;;20.40;48.30;;;;;;4758868;55;21056;-40
2022/11/28 12:00:20;;;;;;;231.93;164.60;;;20.40;48.30;;;;;;4709656;55;21063;-45
2022/11/28 12:05:30;;;;;;;224.10;157.90;;;20.50;48.60;;;;;;4870577;55;21012;-35
2022/11/28 12:10:39;;;;;;;216.20;156.63;;;20.50;48.80;;;;;;4694564;59;21479;-40
2022/11/28 12:16:09;;;;;;;214.68;155.80;;;20.50;48.80;;;;;;4779324;55;21063;-32
2022/11/28 12:21:20;;;;;;;215.07;155.23;;;20.50;49.00;;;;;;4815220;55;21008;-29
2022/11/28 12:29:24;;;;;;;216.38;157.65;;;20.50;49.00;;;;;;4715785;55;21020;-43
2022/11/28 12:36:08;;;;;;;211.35;149.73;;;20.60;49.20;;;;;;4863150;55;21055;-46
2022/11/28 12:41:35;;;;;;;206.95;152.07;;;20.60;49.20;;;;;;4708547;55;21040;-30
2022/11/28 12:48:10;;;;;;;204.33;149.07;;;20.50;49.20;;;;;;4804114;55;21008;-48
2022/11/28 12:54:19;;;;;;;198.80;147.85;;;20.50;49.20;;;;;;4963123;55;21033;-35
2022/11/28 12:59:32;;;;;;;210.30;151.50;;;20.40;49.20;;;;;;4735511;55;21064;-42
2022/11/28 13:06:10;;;;;;;200.87;149.98;;;20.40;49.20;;;;;;4843118;55;21127;-41
2022/11/28 13:12:53;;;;;;;200.05;145.32;;;20.40;49.30;;;;;;5069410;55;21016;-38
2022/11/28 13:18:04;;;;;;;197.93;146.32;;;20.40;49.30;;;;;;4720120;55;21039;-35
2022/11/28 13:23:49;;;;;;;196.48;145.43;;;20.30;49.20;;;;;;4715749;55;21063;-32
2022/11/28 13:28:59;;;;;;;201.50;145.30;;;20.30;49.30;;;;;;4729905;55;21000;-44
2022/11/28 13:34:00;;;;;;;191.65;141.37;;;20.30;49.20;;;;;;5048231;55;21016;-42
2022/11/28 13:39:11;;;;;;;196.20;146.40;;;20.30;49.20;;;;;;4711548;55;21000;-47
2022/11/28 13:44:22;;;;;;;191.32;142.18;;;20.30;49.20;;;;;;4859037;55;21022;-30
2022/11/28 13:49:25;;;;;;;189.10;144.50;;;20.30;49.20;;;;;;4787363;55;21062;-38
2022/11/28 13:54:40;;;;;;;187.55;138.82;;;20.30;49.20;;;;;;4707402;55;21036;-31
2022/11/28 13:59:51;;;;;;;193.37;142.65;;;20.30;49.20;;;;;;4695020;59;21491;-38
2022/11/28 14:04:52;;;;;;;191.25;140.60;;;20.30;49.20;;;;;;4694353;59;21063;-36
2022/11/28 14:10:23;;;;;;;186.62;141.27;;;20.20;49.10;;;;;;4747038;55;21548;-46
2022/11/28 14:15:36;;;;;;;187.60;140.82;;;20.20;49.10;;;;;;4776186;55;21502;-41
2022/11/28 14:20:58;;;;;;;186.52;140.02;;;20.20;49.10;;;;;;4695032;56;20984;-36
2022/11/28 14:26:00;;;;;;;178.18;137.35;;;20.20;49.10;;;;;;4694119;59;21177;-31
2022/11/28 14:31:32;;;;;;;191.35;140.32;;;20.20;49.10;;;;;;4908238;55;21008;-29
2022/11/28 14:36:40;;;;;;;183.00;139.68;;;20.20;49.00;;;;;;4695289;59;21068;-36
2022/11/28 14:42:20;;;;;;;184.57;140.07;;;20.20;49.00;;;;;;4910479;55;21566;-37
2022/11/28 14:47:30;;;;;;;185.90;137.95;;;20.20;49.10;;;;;;4796928;55;21550;-44
2022/11/28 14:52:33;;;;;;;181.12;138.88;;;20.20;49.00;;;;;;4784650;55;21499;-30
2022/11/28 14:57:36;;;;;;;187.00;139.82;;;20.20;49.00;;;;;;4694820;59;21012;-42
2022/11/28 15:03:07;;;;;;;179.12;134.52;;;20.20;49.00;;;;;;4901119;55;21004;-37
2022/11/28 15:11:25;;;;;;;179.98;137.20;;;20.20;49.00;;;;;;4784959;55;21483;-39
2022/11/28 15:16:29;;;;;;;178.12;135.98;;;20.20;49.00;;;;;;4915788;55;21071;-45
2022/11/28 15:21:40;;;;;;;179.45;136.02;;;20.20;49.00;;;;;;4870843;55;21008;-44
2022/11/28 15:26:41;;;;;;;183.20;140.15;;;20.10;48.80;;;;;;4894449;55;21020;-42
2022/11/28 15:31:43;;;;;;;176.93;135.10;;;20.20;48.90;;;;;;4694532;59;21079;-46
2022/11/28 15:36:45;;;;;;;180.45;136.77;;;20.20;48.90;;;;;;4886921;55;21008;-48
2022/11/28 15:41:45;;;;;;;175.18;134.12;;;20.10;48.80;;;;;;4900314;55;21550;-38
2022/11/28 15:46:46;;;;;;;168.93;132.27;;;20.20;48.80;;;;;;4693733;59;21201;-32
2022/11/28 15:51:52;;;;;;;171.87;130.50;;;20.20;48.80;;;;;;5070753;55;21500;-44
2022/11/28 15:56:56;;;;;;;173.85;136.55;;;20.10;48.80;;;;;;4867202;55;21080;-36
2022/11/28 16:02:59;;;;;;;176.35;134.27;;;20.10;48.80;;;;;;4729660;55;20983;-35
2022/11/28 16:08:00;;;;;;;175.12;133.02;;;20.10;48.80;;;;;;4739961;55;20992;-44
2022/11/28 16:13:08;;;;;;;172.87;133.55;;;20.20;48.80;;;;;;5012309;55;21056;-44
2022/11/28 16:18:13;;;;;;;177.52;134.93;;;20.10;48.70;;;;;;4848712;55;21012;-45
2022/11/28 16:23:31;;;;;;;173.75;134.45;;;20.10;48.70;;;;;;4729796;55;21024;-44
2022/11/28 16:28:33;;;;;;;;;;;20.10;48.70;;;;;;4919268;55;21091;-38
2022/11/28 16:33:44;;;;;;;177.75;134.52;;;20.10;48.80;;;;;;4728507;55;20069;-38
2022/11/28 16:38:47;;;;;;;174.87;134.37;;;20.10;48.60;;;;;;4742932;55;21071;-42
2022/11/28 16:44:04;;;;;;;177.90;134.82;;;20.10;48.60;;;;;;4715140;55;21550;-43
2022/11/28 16:49:08;;;;;;;177.02;133.68;;;20.10;48.60;;;;;;4980978;55;21725;-39
2022/11/28 16:56:46;;;;;;;173.73;133.00;;;20.10;48.60;;;;;;4826481;55;21095;-40
2022/11/28 17:01:51;;;;;;;171.20;131.60;;;20.10;48.60;;;;;;4961655;55;21581;-35
2022/11/28 17:06:54;;;;;;;173.57;134.43;;;20.10;48.50;;;;;;5017104;55;21019;-42
2022/11/28 17:12:51;;;;;;;170.77;132.55;;;20.10;48.50;;;;;;4695037;59;21019;-34
2022/11/28 17:17:54;;;;;;;172.23;133.73;;;20.10;48.50;;;;;;4789410;55;21063;-41
2022/11/28 17:22:57;;;;;;;169.75;132.27;;;20.10;48.50;;;;;;4697586;55;21463;-47
2022/11/28 17:27:58;;;;;;;179.10;134.95;;;20.10;48.50;;;;;;4787253;55;21498;-48
2022/11/28 17:33:00;;;;;;;175.48;132.40;;;20.10;48.60;;;;;;4894207;55;21004;-39
2022/11/28 17:38:01;;;;;;;176.73;134.57;;;20.10;48.50;;;;;;4694755;59;21453;-47
2022/11/28 17:43:02;;;;;;;167.87;128.02;;;20.10;48.50;;;;;;4724134;55;21052;-39
2022/11/28 17:48:03;;;;;;;169.10;131.30;;;20.10;48.40;;;;;;4695041;59;21012;-47
2022/11/28 17:53:04;;;;;;;173.80;132.00;;;20.10;48.40;;;;;;4693909;59;21040;-40
2022/11/28 17:58:05;;;;;;;169.82;131.50;;;20.10;48.40;;;;;;4758480;55;21024;-37
2022/11/28 18:03:06;;;;;;;167.68;129.43;;;20.10;48.40;;;;;;4694189;56;21028;-38
2022/11/28 18:08:07;;;;;;;173.85;133.05;;;20.10;48.80;;;;;;4694652;59;21506;-47
2022/11/28 18:13:09;;;;;;;167.87;129.87;;;20.10;48.40;;;;;;4907687;55;20988;-43
2022/11/28 18:18:09;;;;;;;168.55;130.15;;;20.10;48.40;;;;;;4814130;55;21580;-44
2022/11/28 18:23:11;;;;;;;173.65;131.52;;;20.10;48.40;;;;;;5044136;55;21088;-40
2022/11/28 18:28:13;;;;;;;169.57;129.95;;;20.10;48.40;;;;;;4781935;55;21534;-43
2022/11/28 18:33:14;;;;;;;166.68;128.65;;;20.10;48.30;;;;;;4777476;55;21008;-35
2022/11/28 18:38:15;;;;;;;161.20;123.82;;;20.10;48.40;;;;;;4859200;55;21083;-41
2022/11/28 18:43:16;;;;;;;161.32;127.28;;;20.00;48.90;;;;;;4770538;55;21024;-49
2022/11/28 18:48:16;;;;;;;164.60;125.97;;;20.10;48.40;;;;;;4694747;59;21506;-44
2022/11/28 18:53:17;;;;;;;165.85;128.15;;;20.10;48.30;;;;;;4806788;55;21494;-46
2022/11/28 18:58:18;;;;;;;164.48;124.62;;;20.10;48.30;;;;;;4694649;59;21083;-32
2022/11/28 19:03:19;;;;;;;163.77;126.45;;;20.10;48.30;;;;;;4759669;55;21052;-49
2022/11/28 19:08:20;;;;;;;172.87;128.73;;;20.10;48.30;;;;;;4734954;55;21072;-41
2022/11/28 19:13:20;;;;;;;169.48;129.23;;;20.10;48.30;;;;;;4797759;55;21051;-35
2022/11/28 19:18:21;;;;;;;161.02;124.50;;;20.10;48.30;;;;;;4838369;55;21525;-38
2022/11/28 19:23:22;;;;;;;164.88;128.85;;;20.10;48.30;;;;;;5169148;55;21024;-45
2022/11/28 19:28:23;;;;;;;164.88;126.12;;;20.10;48.30;;;;;;4951366;55;21016;-43
2022/11/28 19:33:23;;;;;;;164.23;124.28;;;20.10;48.30;;;;;;4775920;55;21553;-45
2022/11/28 19:38:24;;;;;;;160.70;122.85;;;20.00;48.30;;;;;;5122781;55;21487;-45
2022/11/28 19:43:25;;;;;;;161.30;123.82;;;20.10;48.40;;;;;;5151515;55;21096;-38
2022/11/28 19:48:28;;;;;;;165.85;124.85;;;20.00;48.30;;;;;;4694565;59;21027;-38
2022/11/28 19:53:30;;;;;;;166.55;127.40;;;20.10;48.30;;;;;;4729383;55;21049;-38
2022/11/28 19:58:35;;;;;;;157.07;121.37;;;20.10;48.40;;;;;;4892512;55;21012;-34
2022/11/28 20:03:38;;;;;;;158.80;123.57;;;20.00;48.30;;;;;;4695320;59;21016;-37
2022/11/28 20:08:39;;;;;;;161.37;123.22;;;20.10;48.40;;;;;;4969623;55;21604;-41
2022/11/28 20:13:41;;;;;;;162.80;125.82;;;20.00;48.30;;;;;;4695746;59;21051;-43
2022/11/28 20:18:43;;;;;;;157.07;118.32;;;20.00;48.30;;;;;;4811420;55;21020;-42
2022/11/28 20:23:50;;;;;;;158.00;122.87;;;20.10;48.40;;;;;;4854739;55;21176;-39
2022/11/28 20:28:52;;;;;;;158.52;121.78;;;20.10;48.40;;;;;;4695911;59;21048;-43
2022/11/28 20:33:53;;;;;;;156.45;121.35;;;20.10;48.30;;;;;;4695717;59;21020;-45
2022/11/28 20:38:55;;;;;;;153.07;119.07;;;20.00;48.30;;;;;;4763549;55;21538;-31
2022/11/28 20:43:59;;;;;;;158.12;120.22;;;20.10;48.30;;;;;;4975040;55;21100;-31
2022/11/28 20:49:03;;;;;;;157.45;119.55;;;20.10;48.30;;;;;;4862764;55;21567;-34
2022/11/28 20:54:05;;;;;;;153.73;119.50;;;20.10;48.30;;;;;;4872054;55;21084;-42
2022/11/28 20:59:07;;;;;;;156.02;120.72;;;20.00;48.20;;;;;;4804672;55;21059;-43
2022/11/28 21:04:11;;;;;;;151.18;118.57;;;20.00;48.20;;;;;;4864310;55;21023;-48
2022/11/28 21:09:13;;;;;;;149.95;117.35;;;20.00;48.20;;;;;;4768396;55;20997;-47
2022/11/28 21:14:14;;;;;;;151.12;116.25;;;20.00;48.20;;;;;;4744092;55;21020;-33
2022/11/28 21:19:15;;;;;;;151.90;115.12;;;20.00;48.10;;;;;;4695444;59;21569;-41
2022/11/28 21:24:15;;;;;;;150.82;117.22;;;20.00;48.10;;;;;;4843957;55;21020;-32
2022/11/28 21:29:16;;;;;;;146.75;113.85;;;20.00;48.10;;;;;;4712084;55;21447;-30
2022/11/28 21:34:18;;;;;;;141.80;113.35;;;20.00;48.10;;;;;;4710266;55;21060;-33
2022/11/28 21:39:19;;;;;;;143.55;111.10;;;20.00;48.20;;;;;;4895468;55;21506;-32
2022/11/28 21:44:20;;;;;;;142.18;110.63;;;20.00;48.10;;;;;;5083292;55;21028;-35
2022/11/28 21:49:20;;;;;;;142.48;108.43;;;20.00;48.00;;;;;;4695412;56;21032;-38
2022/11/28 21:54:21;;;;;;;140.23;107.80;;;20.00;48.00;;;;;;4695261;59;21482;-32
2022/11/28 21:59:22;;;;;;;141.98;110.07;;;20.00;48.00;;;;;;4810044;55;21008;-36
2022/11/28 22:04:23;;;;;;;134.93;107.07;;;20.00;47.90;;;;;;4840459;55;21020;-42
2022/11/28 22:09:24;;;;;;;134.63;107.00;;;20.00;47.90;;;;;;4886912;55;20984;-40
2022/11/28 22:14:25;;;;;;;137.80;106.45;;;20.00;47.90;;;;;;4729975;55;21008;-32
2022/11/28 22:19:25;;;;;;;131.63;102.38;;;20.00;47.80;;;;;;4812807;55;21017;-30
2022/11/28 22:24:26;;;;;;;134.55;103.95;;;20.00;47.80;;;;;;4694645;59;21628;-32
2022/11/28 22:29:27;;;;;;;132.82;104.05;;;20.00;47.80;;;;;;4694893;59;21494;-30
2022/11/28 22:34:28;;;;;;;130.23;101.70;;;20.00;47.80;;;;;;4933996;55;21051;-35
2022/11/28 22:39:29;;;;;;;129.65;101.20;;;20.00;47.70;;;;;;5080323;55;20999;-36
2022/11/28 22:44:29;;;;;;;129.55;100.70;;;20.00;47.70;;;;;;4750386;55;20993;-41
2022/11/28 22:49:30;;;;;;;126.03;97.43;;;20.00;47.70;;;;;;4695313;56;21036;-39
2022/11/28 22:54:31;;;;;;;128.43;100.75;;;20.00;47.80;;;;;;4707515;55;21043;-41
2022/11/28 22:59:35;;;;;;;123.97;96.07;;;20.00;47.70;;;;;;4749397;55;21040;-41
2022/11/28 23:04:36;;;;;;;122.65;96.25;;;20.00;47.70;;;;;;4724472;55;21505;-34
2022/11/28 23:09:37;;;;;;;126.60;99.30;;;20.00;47.70;;;;;;4695352;59;21495;-29
2022/11/28 23:14:38;;;;;;;127.05;98.30;;;20.00;47.70;;;;;;5022643;55;21008;-39
2022/11/28 23:19:39;;;;;;;125.32;96.05;;;20.00;47.60;;;;;;4731280;55;21015;-44
2022/11/28 23:24:40;;;;;;;121.20;95.30;;;20.00;47.60;;;;;;4694603;59;21640;-46
2022/11/28 23:29:41;;;;;;;124.43;96.03;;;20.00;47.60;;;;;;4854747;55;21043;-45
2022/11/28 23:34:42;;;;;;;124.05;94.70;;;20.00;47.50;;;;;;4937800;55;21040;-41
2022/11/28 23:39:43;;;;;;;122.35;94.95;;;20.00;47.50;;;;;;5021755;55;21119;-45
2022/11/28 23:44:43;;;;;;;126.43;96.85;;;19.90;47.50;;;;;;4889482;55;21152;-34
2022/11/28 23:49:44;;;;;;;116.47;89.07;;;20.00;47.50;;;;;;4958263;55;21076;-30
2022/11/28 23:54:45;;;;;;;115.72;91.32;;;20.00;47.50;;;;;;5049022;55;21047;-40
2022/11/28 23:59:46;;;;;;;116.45;92.50;;;20.00;47.40;;;;;;4835784;55;21510;-32
